Time;durP1;ratioP1;P1;durP2;ratioP2;P2;SDS_P1;SDS_P2;PMS_P1;PMS_P2;Temp;Humidity;BMP_temperature;BMP_pressure;BME280_temperature;BME280_humidity;BME280_pressure;Samples;Min_cycle;Max_cycle;Signal;HPM_P1;HPM_P2
2021/11/08 00:00:31;;;;;;;7.13;3.07;;;6.10;64.80;;;;;;5024493;28;20021;-81
2021/11/08 00:03:01;;;;;;;6.60;3.63;;;6.10;64.90;;;;;;5036697;28;20032;-81
2021/11/08 00:05:27;;;;;;;4.67;2.30;;;6.10;65.00;;;;;;5046693;28;20029;-80
2021/11/08 00:07:59;;;;;;;7.43;3.87;;;6.10;65.00;;;;;;5028512;28;20027;-81
2021/11/08 00:10:32;;;;;;;10.07;5.33;;;6.10;65.00;;;;;;5040449;28;20017;-81
2021/11/08 00:13:00;;;;;;;8.07;5.87;;;6.10;65.20;;;;;;5021772;28;20025;-81
2021/11/08 00:15:31;;;;;;;11.27;5.87;;;5.90;65.40;;;;;;5036369;28;20061;-80
2021/11/08 00:20:29;;;;;;;11.57;5.57;;;5.90;65.60;;;;;;5041088;28;20506;-81
2021/11/08 00:22:55;;;;;;;9.23;5.20;;;6.00;65.70;;;;;;5027198;28;20426;-80
2021/11/08 00:25:21;;;;;;;9.53;5.77;;;6.00;65.70;;;;;;5045055;28;20025;-81
2021/11/08 00:27:47;;;;;;;9.07;4.80;;;6.00;65.60;;;;;;5021900;28;20045;-80
2021/11/08 00:30:12;;;;;;;8.27;4.53;;;6.00;65.70;;;;;;5014496;28;20026;-81
2021/11/08 00:32:39;;;;;;;5.70;3.47;;;6.00;65.80;;;;;;5015568;28;20149;-81
2021/11/08 00:35:06;;;;;;;6.90;3.07;;;6.10;65.90;;;;;;5021200;28;20021;-81
2021/11/08 00:37:33;;;;;;;6.57;3.30;;;6.10;65.60;;;;;;5002801;28;20347;-81
2021/11/08 00:39:59;;;;;;;7.53;3.43;;;6.20;65.60;;;;;;5013630;28;20029;-80
2021/11/08 00:42:28;;;;;;;6.23;3.60;;;6.20;65.50;;;;;;5013300;28;20102;-81
2021/11/08 00:44:56;;;;;;;9.13;3.97;;;6.20;65.60;;;;;;5020106;28;20073;-81
2021/11/08 00:47:22;;;;;;;6.90;3.73;;;6.20;65.60;;;;;;5034657;28;20076;-81
2021/11/08 00:49:49;;;;;;;7.13;4.07;;;6.20;65.60;;;;;;5016740;28;20113;-80
2021/11/08 00:52:15;;;;;;;8.03;4.53;;;6.30;65.70;;;;;;5038826;28;20112;-81
2021/11/08 00:54:41;;;;;;;10.67;5.90;;;6.30;65.70;;;;;;5028888;28;20108;-80
2021/11/08 00:57:11;;;;;;;9.63;5.57;;;6.30;65.70;;;;;;5028467;28;20018;-81
2021/11/08 00:59:36;;;;;;;14.33;6.63;;;6.30;65.70;;;;;;5035632;28;20021;-81
2021/11/08 01:02:03;;;;;;;11.40;6.43;;;6.30;65.80;;;;;;5040389;28;20037;-80
2021/11/08 01:04:29;;;;;;;14.30;6.73;;;6.30;65.80;;;;;;5032673;28;20498;-81
2021/11/08 01:07:00;;;;;;;11.50;6.63;;;6.30;65.90;;;;;;5014925;28;20029;-81
2021/11/08 01:09:28;;;;;;;8.23;6.10;;;6.30;65.90;;;;;;5035084;28;20036;-80
2021/11/08 01:11:54;;;;;;;9.63;5.83;;;6.30;66.00;;;;;;5028058;28;20053;-80
2021/11/08 01:14:20;;;;;;;8.67;5.73;;;6.30;65.90;;;;;;5021462;28;20665;-80
2021/11/08 01:16:46;;;;;;;7.97;5.37;;;6.30;66.10;;;;;;5010679;28;20018;-80
2021/11/08 01:19:13;;;;;;;9.70;5.50;;;6.30;66.20;;;;;;5028902;28;20079;-80
2021/11/08 01:21:39;;;;;;;10.97;5.57;;;6.30;66.50;;;;;;5045540;28;20030;-80
2021/11/08 01:24:05;;;;;;;7.00;4.90;;;6.30;66.50;;;;;;5009922;28;20396;-81
2021/11/08 01:26:32;;;;;;;13.43;5.07;;;6.40;66.50;;;;;;5033820;28;20041;-80
2021/11/08 01:28:58;;;;;;;7.80;5.40;;;6.30;66.50;;;;;;5046248;28;20120;-80
2021/11/08 01:31:24;;;;;;;11.00;6.07;;;6.40;66.60;;;;;;5031076;28;20186;-80
2021/11/08 01:33:52;;;;;;;9.60;5.23;;;6.40;66.60;;;;;;5031669;28;20025;-80
2021/11/08 01:36:37;;;;;;;8.47;5.67;;;6.40;66.70;;;;;;5032496;28;20029;-80
2021/11/08 01:39:15;;;;;;;8.07;5.47;;;6.40;66.70;;;;;;5034514;28;20459;-80
2021/11/08 01:41:43;;;;;;;9.50;5.73;;;6.40;66.80;;;;;;5051768;28;20502;-80
2021/11/08 01:44:09;;;;;;;9.33;5.30;;;6.40;67.00;;;;;;5049715;28;20503;-80
2021/11/08 01:46:35;;;;;;;12.33;5.47;;;6.40;67.00;;;;;;5050336;28;20032;-80
2021/11/08 01:49:01;;;;;;;8.27;6.33;;;6.40;67.10;;;;;;5052309;28;20399;-80
2021/11/08 01:51:26;;;;;;;9.87;6.20;;;6.40;67.10;;;;;;5054558;28;20465;-80
2021/11/08 01:53:53;;;;;;;11.50;6.30;;;6.40;67.10;;;;;;5032871;28;20047;-80
2021/11/08 01:56:21;;;;;;;9.33;5.87;;;6.50;67.20;;;;;;5049552;28;20048;-80
2021/11/08 01:58:49;;;;;;;8.07;5.50;;;6.40;67.10;;;;;;5053238;28;20356;-80
2021/11/08 02:01:15;;;;;;;9.03;4.90;;;6.40;67.10;;;;;;5034035;28;20017;-80
2021/11/08 02:03:43;;;;;;;8.60;5.40;;;6.30;67.40;;;;;;5053441;28;20021;-80
2021/11/08 02:06:09;;;;;;;10.00;5.70;;;6.30;67.50;;;;;;5053834;28;20029;-80
2021/11/08 02:08:37;;;;;;;9.77;6.50;;;6.40;67.50;;;;;;5035822;28;20031;-80
2021/11/08 02:11:03;;;;;;;7.93;4.60;;;6.30;67.30;;;;;;5052094;28;20031;-80
2021/11/08 02:13:30;;;;;;;6.93;4.73;;;6.30;67.50;;;;;;5050360;28;20040;-80
2021/11/08 02:15:55;;;;;;;10.00;5.23;;;6.30;67.50;;;;;;5052554;28;20419;-80
2021/11/08 02:18:22;;;;;;;9.63;5.87;;;6.30;68.10;;;;;;5034382;28;20028;-80
2021/11/08 02:20:50;;;;;;;7.77;5.00;;;6.30;67.70;;;;;;5018444;28;20029;-80
2021/11/08 02:23:18;;;;;;;6.73;5.00;;;6.30;67.80;;;;;;5051556;28;20033;-80
2021/11/08 02:25:44;;;;;;;7.97;5.13;;;6.30;67.70;;;;;;5051137;28;20029;-80
2021/11/08 02:28:12;;;;;;;9.73;5.20;;;6.30;67.80;;;;;;5053474;28;20045;-80
2021/11/08 02:30:38;;;;;;;9.33;5.83;;;6.40;67.80;;;;;;5035033;28;20079;-80
2021/11/08 02:33:08;;;;;;;10.33;5.87;;;6.40;67.70;;;;;;5036897;28;20044;-80
2021/11/08 02:35:35;;;;;;;10.87;6.70;;;6.40;68.10;;;;;;5045983;28;20087;-80
2021/11/08 02:38:02;;;;;;;10.67;6.43;;;6.40;67.90;;;;;;5029761;28;20364;-80
2021/11/08 02:40:29;;;;;;;7.80;5.67;;;6.40;67.90;;;;;;5034851;28;20133;-80
2021/11/08 02:43:02;;;;;;;11.60;5.77;;;6.40;68.00;;;;;;5053200;28;20472;-80
2021/11/08 02:45:30;;;;;;;9.03;5.57;;;6.50;68.10;;;;;;5029743;28;20043;-80
2021/11/08 02:47:57;;;;;;;8.77;5.90;;;6.50;68.00;;;;;;5054614;28;20104;-80
2021/11/08 02:50:29;;;;;;;10.83;6.30;;;6.50;68.00;;;;;;5036268;28;20032;-80
2021/11/08 02:52:55;;;;;;;10.07;5.90;;;6.50;68.00;;;;;;5075164;28;20044;-80
2021/11/08 02:55:25;;;;;;;8.13;5.43;;;6.50;68.00;;;;;;5062420;28;20487;-80
2021/11/08 02:57:52;;;;;;;8.77;5.33;;;6.50;68.10;;;;;;5035644;28;20104;-80
2021/11/08 03:00:19;;;;;;;8.30;5.40;;;6.50;68.10;;;;;;5050712;28;20079;-80
2021/11/08 03:02:47;;;;;;;10.27;5.63;;;6.50;68.30;;;;;;5057978;28;20063;-80
2021/11/08 03:05:15;;;;;;;9.53;5.43;;;6.50;68.30;;;;;;5053388;28;20047;-80
2021/11/08 03:07:44;;;;;;;8.27;5.43;;;6.50;68.30;;;;;;5041987;28;20511;-80
2021/11/08 03:10:33;;;;;;;9.73;5.83;;;6.50;68.30;;;;;;5035178;28;20032;-80
2021/11/08 03:13:06;;;;;;;8.30;5.67;;;6.50;68.30;;;;;;5042864;28;20081;-80
2021/11/08 03:18:11;;;;;;;9.40;5.47;;;6.60;68.30;;;;;;5048939;28;20108;-84
2021/11/08 03:20:37;;;;;;;8.43;5.63;;;6.60;68.30;;;;;;5037463;28;20021;-80
2021/11/08 03:23:06;;;;;;;9.20;5.07;;;6.50;68.40;;;;;;5040025;28;20032;-80
2021/11/08 03:28:00;;;;;;;14.87;5.40;;;6.40;68.60;;;;;;5051700;28;20053;-80
2021/11/08 03:30:36;;;;;;;11.13;5.83;;;6.40;68.60;;;;;;5047862;28;20112;-80
2021/11/08 03:33:02;;;;;;;10.03;5.80;;;6.40;68.50;;;;;;5047155;28;20668;-80
2021/11/08 03:35:29;;;;;;;8.40;5.43;;;6.50;68.70;;;;;;5036140;28;20039;-80
2021/11/08 03:37:56;;;;;;;8.47;5.47;;;6.50;68.80;;;;;;5049255;28;20444;-80
2021/11/08 03:40:25;;;;;;;8.27;5.10;;;6.50;68.80;;;;;;5050770;28;20087;-80
2021/11/08 03:42:54;;;;;;;7.57;5.20;;;6.50;68.90;;;;;;5033336;28;20025;-80
2021/11/08 03:45:20;;;;;;;11.43;4.97;;;6.60;69.00;;;;;;5053832;28;20404;-80
2021/11/08 03:47:46;;;;;;;7.57;4.90;;;6.60;68.90;;;;;;5045397;28;20027;-80
2021/11/08 03:50:12;;;;;;;9.37;5.30;;;6.60;69.00;;;;;;5036354;28;20037;-80
2021/11/08 03:52:39;;;;;;;8.53;5.03;;;6.50;68.90;;;;;;5033044;28;20063;-80
2021/11/08 03:55:11;;;;;;;9.23;5.47;;;6.50;69.00;;;;;;5036537;28;20503;-80
2021/11/08 03:57:36;;;;;;;7.20;4.87;;;6.50;69.10;;;;;;5053346;28;20132;-80
2021/11/08 04:00:07;;;;;;;23.47;5.57;;;6.50;68.90;;;;;;5051481;28;20021;-80
2021/11/08 04:02:33;;;;;;;8.93;5.27;;;6.50;69.00;;;;;;5074723;28;20025;-80
2021/11/08 04:05:01;;;;;;;7.43;5.10;;;6.40;68.80;;;;;;5045138;28;20033;-80
2021/11/08 04:07:27;;;;;;;11.07;5.00;;;6.40;69.00;;;;;;5045631;28;20075;-80
2021/11/08 04:09:53;;;;;;;8.67;5.90;;;6.40;68.80;;;;;;5051891;28;20044;-80
2021/11/08 04:12:19;;;;;;;8.10;5.13;;;6.40;68.80;;;;;;5038236;28;20036;-81
2021/11/08 04:14:46;;;;;;;9.00;5.33;;;6.40;68.80;;;;;;5041823;28;20480;-80
2021/11/08 04:17:14;;;;;;;9.40;5.20;;;6.40;68.80;;;;;;5035508;28;20020;-80
2021/11/08 04:19:41;;;;;;;8.83;5.60;;;6.40;68.70;;;;;;5051602;28;20025;-80
2021/11/08 04:22:08;;;;;;;9.83;6.07;;;6.40;68.80;;;;;;5053650;28;20032;-80
2021/11/08 04:24:33;;;;;;;9.93;5.53;;;6.40;68.80;;;;;;5035509;28;20035;-80
2021/11/08 04:26:59;;;;;;;8.87;5.67;;;6.40;68.80;;;;;;5048274;28;20029;-80
2021/11/08 04:29:25;;;;;;;8.70;5.40;;;6.40;68.80;;;;;;5047333;28;20032;-80
2021/11/08 04:31:52;;;;;;;8.10;5.67;;;6.40;68.70;;;;;;5028029;28;20099;-80
2021/11/08 04:34:25;;;;;;;9.53;6.13;;;6.40;69.00;;;;;;5063943;28;20021;-80
2021/11/08 04:47:07;;;;;;;8.47;6.00;;;6.70;69.10;;;;;;5057244;28;20036;-80
2021/11/08 05:32:26;;;;;;;10.70;6.05;;;6.70;68.80;;;;;;5033253;28;20123;-79
2021/11/08 05:34:52;;;;;;;12.37;6.33;;;6.70;68.80;;;;;;5009994;28;20887;-79
2021/11/08 05:37:18;;;;;;;12.17;6.40;;;6.70;68.90;;;;;;5028162;28;20085;-79
2021/11/08 05:39:48;;;;;;;11.57;7.30;;;6.80;69.00;;;;;;5029885;28;20032;-79
2021/11/08 05:42:15;;;;;;;15.63;7.33;;;6.70;69.10;;;;;;5012375;28;20022;-79
2021/11/08 05:44:41;;;;;;;11.40;7.00;;;6.80;69.30;;;;;;5029677;28;20029;-80
2021/11/08 05:47:07;;;;;;;11.30;6.67;;;6.70;69.90;;;;;;5034809;28;20032;-80
2021/11/08 05:49:34;;;;;;;8.97;5.60;;;6.80;69.40;;;;;;5036211;28;20033;-79
2021/11/08 05:52:00;;;;;;;11.33;7.40;;;6.80;69.40;;;;;;5043109;28;20026;-80
2021/11/08 05:54:27;;;;;;;12.87;7.47;;;6.80;69.40;;;;;;5032934;28;20030;-80
2021/11/08 06:51:31;;;;;;;34.47;15.83;;;6.80;70.80;;;;;;5033838;28;20030;-80
2021/11/08 06:54:01;;;;;;;53.33;22.20;;;6.80;70.60;;;;;;5034130;28;20024;-80
2021/11/08 06:56:29;;;;;;;51.87;23.07;;;6.80;70.60;;;;;;5024008;28;20051;-80
2021/11/08 06:58:56;;;;;;;49.67;21.53;;;6.90;70.90;;;;;;5030203;28;20419;-80
2021/11/08 07:01:23;;;;;;;40.03;19.70;;;6.90;70.90;;;;;;5025458;28;20026;-80
2021/11/08 07:03:49;;;;;;;44.43;20.37;;;6.90;70.70;;;;;;5052844;28;20029;-79
2021/11/08 07:06:15;;;;;;;34.13;16.90;;;6.90;70.70;;;;;;5040360;28;20040;-80
2021/11/08 07:08:40;;;;;;;27.00;14.23;;;6.90;70.70;;;;;;5024201;28;20033;-80
2021/11/08 07:11:06;;;;;;;22.83;12.73;;;6.90;70.70;;;;;;5032486;28;20025;-80
2021/11/08 07:13:32;;;;;;;19.20;11.83;;;6.80;70.70;;;;;;5036417;28;20026;-80
2021/11/08 07:15:58;;;;;;;21.70;12.00;;;6.80;71.10;;;;;;5019758;28;20408;-80
2021/11/08 07:18:23;;;;;;;16.07;8.93;;;6.80;71.30;;;;;;5038547;28;20071;-80
2021/11/08 07:20:49;;;;;;;22.03;13.17;;;6.90;71.30;;;;;;5032935;28;20025;-80
2021/11/08 07:23:15;;;;;;;21.47;12.93;;;6.90;71.20;;;;;;5015030;28;20045;-80
2021/11/08 07:25:42;;;;;;;13.63;8.20;;;6.90;71.20;;;;;;5015415;28;20120;-80
2021/11/08 07:28:11;;;;;;;18.00;10.20;;;6.90;71.80;;;;;;5045595;28;21710;-79
2021/11/08 07:30:38;;;;;;;13.17;8.83;;;6.90;71.50;;;;;;5048759;28;20032;-81
2021/11/08 07:33:04;;;;;;;16.30;8.83;;;6.90;71.50;;;;;;5047598;28;20036;-78
2021/11/08 07:35:30;;;;;;;14.60;8.43;;;6.90;71.40;;;;;;5034323;28;20457;-79
2021/11/08 07:37:56;;;;;;;13.70;8.63;;;6.90;71.40;;;;;;5032961;28;20094;-79
2021/11/08 07:40:21;;;;;;;14.00;7.60;;;6.90;71.50;;;;;;5042921;28;20022;-79
2021/11/08 07:42:49;;;;;;;14.10;7.87;;;6.90;71.60;;;;;;5050629;28;20094;-79
2021/11/08 07:45:15;;;;;;;12.10;8.17;;;6.90;71.60;;;;;;5033401;28;20036;-79
2021/11/08 07:47:40;;;;;;;14.97;7.67;;;7.00;71.90;;;;;;5031526;28;20082;-79
2021/11/08 07:50:07;;;;;;;23.43;13.27;;;7.10;71.80;;;;;;5029492;28;20029;-79
2021/11/08 07:52:33;;;;;;;43.30;21.83;;;7.00;71.80;;;;;;5044142;28;20041;-79
2021/11/08 07:54:59;;;;;;;21.83;13.73;;;7.00;71.70;;;;;;5035743;28;20030;-80
2021/11/08 07:57:25;;;;;;;30.43;15.27;;;7.00;71.80;;;;;;5055414;28;20576;-80
2021/11/08 07:59:50;;;;;;;19.90;12.37;;;7.10;72.40;;;;;;5045351;28;20033;-79
2021/11/08 08:02:16;;;;;;;19.47;12.23;;;7.10;71.60;;;;;;5029880;28;20024;-79
2021/11/08 08:04:42;;;;;;;21.57;13.50;;;7.20;71.40;;;;;;5057470;28;20016;-80
2021/11/08 08:07:08;;;;;;;21.07;12.87;;;7.20;71.50;;;;;;5050622;28;20029;-79
2021/11/08 08:09:35;;;;;;;19.60;12.63;;;7.20;71.50;;;;;;5054837;28;20040;-79
2021/11/08 08:12:01;;;;;;;13.57;8.47;;;7.20;71.70;;;;;;5046036;28;20112;-80
2021/11/08 08:14:28;;;;;;;13.57;8.37;;;7.20;71.60;;;;;;5039944;28;20174;-79
2021/11/08 08:16:54;;;;;;;12.23;8.73;;;7.30;71.40;;;;;;5046869;28;20476;-80
2021/11/08 08:19:20;;;;;;;13.37;9.40;;;7.30;71.40;;;;;;5032950;28;20022;-80
2021/11/08 08:21:46;;;;;;;13.00;7.83;;;7.30;71.40;;;;;;5040902;28;20583;-80
2021/11/08 08:24:12;;;;;;;12.17;7.73;;;7.30;71.30;;;;;;5045545;28;20083;-80
2021/11/08 08:26:40;;;;;;;12.10;8.33;;;7.30;71.20;;;;;;5046751;28;20481;-79
2021/11/08 08:29:07;;;;;;;13.87;8.20;;;7.30;71.50;;;;;;5031499;28;20025;-80
2021/11/08 08:31:36;;;;;;;11.50;8.33;;;7.30;71.60;;;;;;5037821;28;20104;-80
2021/11/08 08:34:02;;;;;;;12.70;8.13;;;7.40;71.50;;;;;;5032764;28;20029;-79
2021/11/08 08:36:28;;;;;;;13.97;7.63;;;7.40;71.30;;;;;;5053451;28;20132;-80
2021/11/08 08:38:54;;;;;;;11.57;8.20;;;7.50;71.50;;;;;;5028693;28;20120;-80
2021/11/08 08:41:21;;;;;;;13.17;7.90;;;7.50;71.30;;;;;;5009311;28;20548;-80
2021/11/08 08:43:46;;;;;;;10.30;7.83;;;7.50;71.10;;;;;;5026911;28;20030;-80
2021/11/08 08:46:13;;;;;;;12.50;8.37;;;7.50;70.90;;;;;;5013376;28;20025;-79
2021/11/08 08:48:40;;;;;;;12.23;8.70;;;7.60;71.10;;;;;;5022693;28;20117;-79
2021/11/08 08:51:07;;;;;;;13.47;8.53;;;7.60;70.70;;;;;;5049317;28;20063;-80
2021/11/08 08:53:34;;;;;;;12.37;8.10;;;7.60;70.80;;;;;;5024844;28;20026;-79
2021/11/08 08:56:00;;;;;;;12.93;8.70;;;7.60;70.70;;;;;;5010903;28;20060;-80
2021/11/08 08:58:26;;;;;;;11.40;7.70;;;7.60;70.70;;;;;;5013597;28;20057;-80
2021/11/08 09:00:52;;;;;;;13.13;8.37;;;7.70;70.50;;;;;;5011039;28;20060;-79
2021/11/08 09:03:19;;;;;;;11.13;7.70;;;7.80;70.50;;;;;;5030512;28;20038;-79
2021/11/08 09:05:47;;;;;;;14.27;8.37;;;7.80;70.40;;;;;;5030040;28;20108;-80
2021/11/08 09:08:13;;;;;;;10.87;7.87;;;7.80;70.30;;;;;;5009794;28;20034;-80
2021/11/08 09:10:40;;;;;;;18.33;8.07;;;7.80;70.00;;;;;;5019912;28;20037;-80
2021/11/08 09:13:08;;;;;;;10.07;7.83;;;7.80;70.00;;;;;;5014814;28;20034;-80
2021/11/08 09:15:36;;;;;;;11.73;7.97;;;7.90;70.10;;;;;;5021872;28;20030;-80
2021/11/08 09:18:03;;;;;;;13.50;9.17;;;7.90;69.70;;;;;;5019893;28;20053;-80
2021/11/08 09:20:30;;;;;;;10.63;7.90;;;7.90;69.80;;;;;;5030326;28;20029;-80
2021/11/08 09:22:57;;;;;;;17.37;8.73;;;7.90;69.60;;;;;;5030905;28;20527;-80
2021/11/08 09:25:25;;;;;;;9.80;7.47;;;8.00;69.70;;;;;;5012997;28;20034;-80
2021/11/08 09:27:55;;;;;;;12.23;8.00;;;8.00;69.70;;;;;;5019396;28;20049;-80
2021/11/08 09:30:23;;;;;;;13.20;7.93;;;8.20;69.70;;;;;;5042987;28;20029;-80
2021/11/08 09:32:49;;;;;;;12.70;8.03;;;8.20;69.70;;;;;;5025586;28;20056;-80
2021/11/08 09:35:16;;;;;;;13.30;8.33;;;8.40;69.60;;;;;;5028437;28;20029;-79
2021/11/08 09:37:47;;;;;;;15.70;8.17;;;8.60;69.50;;;;;;5057140;28;20173;-80
2021/11/08 09:40:16;;;;;;;12.33;7.90;;;8.90;69.40;;;;;;5032976;28;20029;-80
2021/11/08 09:42:43;;;;;;;11.27;7.87;;;9.20;69.20;;;;;;5046549;28;20024;-80
2021/11/08 09:45:11;;;;;;;11.17;7.50;;;9.60;68.70;;;;;;5032703;28;20056;-80
2021/11/08 09:47:38;;;;;;;14.13;7.80;;;9.90;68.10;;;;;;5033356;28;20033;-80
2021/11/08 09:50:09;;;;;;;10.20;7.37;;;10.10;67.20;;;;;;5038160;28;20461;-80
2021/11/08 09:52:41;;;;;;;19.67;10.33;;;10.10;66.80;;;;;;5049322;28;20037;-80
2021/11/08 09:55:11;;;;;;;12.98;9.25;;;10.00;66.30;;;;;;5039646;28;20024;-80
2021/11/08 09:57:37;;;;;;;17.37;10.27;;;9.80;66.50;;;;;;5042859;28;20025;-80
2021/11/08 10:00:36;;;;;;;15.00;9.93;;;9.60;66.80;;;;;;5050623;28;20021;-80
2021/11/08 10:03:05;;;;;;;15.57;9.83;;;9.50;66.90;;;;;;4991642;28;20040;-80
2021/11/08 10:05:33;;;;;;;21.87;9.00;;;9.30;67.10;;;;;;5031059;28;20021;-80
2021/11/08 10:08:00;;;;;;;14.67;9.73;;;9.30;67.20;;;;;;5051624;28;20491;-80
2021/11/08 10:10:28;;;;;;;10.87;8.03;;;9.20;67.40;;;;;;5036401;28;20044;-79
2021/11/08 10:13:04;;;;;;;14.07;8.10;;;9.20;67.40;;;;;;5069509;28;20506;-79
2021/11/08 10:15:30;;;;;;;15.10;8.70;;;9.20;67.40;;;;;;5048156;28;20031;-80
2021/11/08 10:17:55;;;;;;;14.97;7.40;;;9.10;67.30;;;;;;5044312;28;20021;-80
2021/11/08 10:20:42;;;;;;;13.90;7.50;;;9.20;67.40;;;;;;5051656;28;20112;-81
2021/11/08 10:23:14;;;;;;;11.83;6.97;;;9.20;67.10;;;;;;5032230;28;20577;-81
2021/11/08 10:25:41;;;;;;;14.33;9.17;;;9.20;67.20;;;;;;5047687;28;20029;-81
2021/11/08 10:28:10;;;;;;;16.90;10.93;;;9.20;67.00;;;;;;5020549;28;20041;-80
2021/11/08 10:30:37;;;;;;;14.03;9.27;;;9.30;67.00;;;;;;5009567;28;20030;-80
2021/11/08 10:33:08;;;;;;;14.83;8.67;;;9.50;67.00;;;;;;5039721;28;20041;-81
2021/11/08 10:35:55;;;;;;;15.40;8.73;;;9.60;66.90;;;;;;5017368;28;20017;-81
2021/11/08 10:38:27;;;;;;;16.37;9.43;;;9.70;66.80;;;;;;5054379;28;20113;-79
2021/11/08 10:40:59;;;;;;;9.55;7.13;;;9.80;66.70;;;;;;5027352;28;20034;-79
2021/11/08 10:43:31;;;;;;;10.45;6.97;;;10.00;66.70;;;;;;5028272;28;20026;-79
2021/11/08 10:46:14;;;;;;;9.57;6.70;;;10.50;66.40;;;;;;5034914;28;20376;-79
2021/11/08 10:48:46;;;;;;;8.98;5.47;;;10.90;65.60;;;;;;5014690;28;20055;-79
2021/11/08 10:51:14;;;;;;;7.97;6.30;;;11.20;64.90;;;;;;5031575;28;20131;-81
2021/11/08 10:53:52;;;;;;;9.57;6.47;;;11.60;64.40;;;;;;5016247;28;20025;-81
2021/11/08 10:56:31;;;;;;;7.57;3.87;;;11.90;63.60;;;;;;5036714;28;20060;-81
2021/11/08 10:59:00;;;;;;;5.70;3.73;;;12.10;62.70;;;;;;5020430;28;20029;-81
2021/11/08 11:01:35;;;;;;;8.10;4.70;;;12.20;62.70;;;;;;5038538;28;20021;-81
2021/11/08 11:04:05;;;;;;;5.93;3.10;;;12.30;61.60;;;;;;5051789;28;20029;-81
2021/11/08 11:06:38;;;;;;;7.70;2.80;;;12.40;61.60;;;;;;5018689;28;20611;-81
2021/11/08 11:09:17;;;;;;;6.43;2.43;;;12.70;61.10;;;;;;5015662;28;20048;-81
2021/11/08 11:11:45;;;;;;;4.90;2.60;;;12.90;60.50;;;;;;5053308;28;20057;-81
2021/11/08 11:14:11;;;;;;;3.27;2.50;;;13.00;60.10;;;;;;5017893;28;20100;-81
2021/11/08 11:16:49;;;;;;;6.30;2.37;;;13.20;59.30;;;;;;5036304;28;20026;-81
2021/11/08 11:19:16;;;;;;;7.47;2.80;;;13.00;58.70;;;;;;5023372;28;20041;-81
2021/11/08 11:22:02;;;;;;;6.03;2.20;;;12.90;58.70;;;;;;5032404;28;20017;-79
2021/11/08 11:24:45;;;;;;;6.37;2.00;;;12.90;58.70;;;;;;5031674;28;20041;-79
2021/11/08 11:27:30;;;;;;;3.70;2.03;;;13.00;58.40;;;;;;4999307;28;20052;-79
2021/11/08 11:30:13;;;;;;;5.07;1.50;;;13.10;58.10;;;;;;5024607;28;20159;-79
2021/11/08 11:32:40;;;;;;;4.80;1.60;;;13.30;57.10;;;;;;5030974;28;20483;-79
2021/11/08 11:35:15;;;;;;;4.13;1.93;;;13.30;57.50;;;;;;5036859;28;20119;-79
2021/11/08 11:37:56;;;;;;;10.13;2.13;;;13.50;56.50;;;;;;5053779;28;20029;-79
2021/11/08 11:40:24;;;;;;;5.67;2.50;;;13.50;56.00;;;;;;5023043;28;20029;-80
2021/11/08 11:42:56;;;;;;;6.13;1.53;;;13.60;56.10;;;;;;5016393;28;20034;-80
2021/11/08 11:45:22;;;;;;;7.13;2.53;;;13.70;55.80;;;;;;5011004;28;20037;-81
2021/11/08 11:48:15;;;;;;;4.53;2.00;;;13.70;55.70;;;;;;5048509;28;20384;-81
2021/11/08 11:50:41;;;;;;;8.07;2.60;;;13.90;55.00;;;;;;5022935;28;20068;-81
2021/11/08 11:53:07;;;;;;;7.07;2.93;;;13.90;55.00;;;;;;5015576;28;20025;-80
2021/11/08 11:55:35;;;;;;;6.35;2.58;;;14.00;54.80;;;;;;5026559;28;20477;-79
2021/11/08 11:58:01;;;;;;;7.33;4.17;;;14.00;54.50;;;;;;5016053;28;20653;-79
2021/11/08 12:00:36;;;;;;;11.10;3.03;;;14.00;54.30;;;;;;5031554;28;20100;-80
2021/11/08 12:03:03;;;;;;;8.23;3.10;;;13.90;54.20;;;;;;5021603;28;20081;-79
2021/11/08 12:05:29;;;;;;;4.97;1.67;;;13.80;54.40;;;;;;5021791;28;20059;-79
2021/11/08 12:07:59;;;;;;;7.13;2.37;;;13.80;54.00;;;;;;5019099;28;20037;-79
2021/11/08 12:10:25;;;;;;;4.33;1.43;;;13.80;53.80;;;;;;5008658;28;20034;-80
2021/11/08 12:12:52;;;;;;;5.73;1.70;;;13.90;53.60;;;;;;5019564;28;20030;-79
2021/11/08 12:15:26;;;;;;;6.13;2.03;;;13.90;52.90;;;;;;5033815;28;20022;-80
2021/11/08 12:17:54;;;;;;;5.50;2.10;;;13.60;52.80;;;;;;5015437;28;20384;-80
2021/11/08 12:20:24;;;;;;;4.67;1.50;;;13.70;53.10;;;;;;5010584;28;20377;-80
2021/11/08 12:22:53;;;;;;;4.80;1.50;;;13.70;52.60;;;;;;5030129;28;20033;-81
2021/11/08 12:25:22;;;;;;;4.47;1.40;;;13.60;52.50;;;;;;5005793;28;20026;-80
2021/11/08 12:28:09;;;;;;;7.10;1.90;;;13.60;51.90;;;;;;5045728;28;20391;-80
2021/11/08 12:30:37;;;;;;;3.77;1.50;;;13.60;52.10;;;;;;5042415;28;20057;-79
2021/11/08 12:33:31;;;;;;;6.40;1.40;;;13.60;52.00;;;;;;5047143;28;20036;-80
2021/11/08 12:36:10;;;;;;;5.63;1.40;;;13.70;51.90;;;;;;5033056;28;20017;-80
2021/11/08 12:38:41;;;;;;;4.63;1.27;;;13.70;52.10;;;;;;5044206;28;20029;-80
2021/11/08 12:41:24;;;;;;;6.70;1.63;;;13.70;51.70;;;;;;5044761;28;20025;-80
2021/11/08 12:44:05;;;;;;;9.83;2.10;;;13.70;51.50;;;;;;5019762;28;20044;-80
2021/11/08 12:46:50;;;;;;;7.00;1.63;;;13.60;51.20;;;;;;5038701;28;20033;-80
2021/11/08 12:49:22;;;;;;;4.70;1.63;;;13.60;51.40;;;;;;5041211;28;20472;-80
2021/11/08 12:51:54;;;;;;;4.47;1.42;;;13.60;51.30;;;;;;5031824;28;20920;-80
2021/11/08 12:54:21;;;;;;;8.38;1.95;;;13.60;51.20;;;;;;5034198;28;20041;-79
2021/11/08 12:56:48;;;;;;;4.83;1.70;;;13.70;50.90;;;;;;5026848;28;20416;-80
2021/11/08 12:59:21;;;;;;;5.83;1.60;;;13.60;50.80;;;;;;5041219;28;20111;-80
2021/11/08 13:01:55;;;;;;;5.57;1.80;;;13.60;50.80;;;;;;5059869;28;20059;-80
2021/11/08 13:04:31;;;;;;;6.23;1.43;;;13.70;50.80;;;;;;5059758;28;20099;-80
2021/11/08 13:07:08;;;;;;;4.77;1.30;;;13.60;50.50;;;;;;5066733;28;20467;-80
2021/11/08 13:09:39;;;;;;;4.67;1.57;;;13.70;50.60;;;;;;5069899;28;20444;-80
2021/11/08 13:12:18;;;;;;;9.17;2.17;;;13.70;50.80;;;;;;5038153;28;20112;-80
2021/11/08 13:14:45;;;;;;;10.10;2.03;;;13.70;50.70;;;;;;5050827;28;20029;-80
2021/11/08 13:17:14;;;;;;;4.83;1.90;;;13.70;50.80;;;;;;5014617;28;20461;-80
2021/11/08 13:20:04;;;;;;;4.43;1.90;;;13.70;50.90;;;;;;5063876;28;20116;-80
2021/11/08 13:22:35;;;;;;;7.53;2.17;;;13.70;51.50;;;;;;5052086;28;20025;-80
2021/11/08 13:25:07;;;;;;;6.93;2.30;;;13.60;50.80;;;;;;5048142;28;20033;-80
2021/11/08 13:27:33;;;;;;;3.97;1.60;;;13.50;50.80;;;;;;5058131;28;20427;-80
2021/11/08 13:30:02;;;;;;;4.17;1.47;;;13.50;50.90;;;;;;5064384;28;20511;-81
2021/11/08 13:32:30;;;;;;;4.83;1.47;;;13.50;50.80;;;;;;5043211;28;20492;-80
2021/11/08 13:35:04;;;;;;;3.97;1.10;;;13.50;50.60;;;;;;5022507;28;20341;-80
2021/11/08 13:37:39;;;;;;;4.90;1.50;;;13.50;50.70;;;;;;5042452;28;20033;-81
2021/11/08 13:40:17;;;;;;;3.83;1.20;;;13.40;50.40;;;;;;5034089;28;20021;-79
2021/11/08 13:42:44;;;;;;;4.07;1.40;;;13.40;50.30;;;;;;5030950;28;20037;-80
2021/11/08 13:45:10;;;;;;;5.10;1.20;;;13.40;50.40;;;;;;5036267;28;20108;-80
2021/11/08 13:47:40;;;;;;;3.97;1.10;;;13.40;50.40;;;;;;5044256;28;20107;-80
2021/11/08 13:50:12;;;;;;;3.90;1.10;;;13.30;50.30;;;;;;5047257;28;20029;-80
2021/11/08 13:52:40;;;;;;;5.47;1.30;;;13.30;50.60;;;;;;5047937;28;20040;-80
2021/11/08 13:55:09;;;;;;;2.27;1.10;;;13.30;50.40;;;;;;5035199;28;20033;-80
2021/11/08 13:57:39;;;;;;;4.67;1.50;;;13.30;50.40;;;;;;5035143;28;20571;-80
2021/11/08 14:00:12;;;;;;;4.50;1.40;;;13.30;50.40;;;;;;5054573;28;20361;-80
2021/11/08 14:02:38;;;;;;;;;;;13.20;50.70;;;;;;5084174;28;20368;-80
2021/11/08 14:05:05;;;;;;;3.20;1.47;;;13.10;50.80;;;;;;5069696;28;20012;-81
2021/11/08 14:07:33;;;;;;;5.23;2.03;;;13.10;50.80;;;;;;5053045;28;20066;-80
2021/11/08 14:09:59;;;;;;;5.77;1.70;;;13.00;51.10;;;;;;5050365;28;20861;-80
2021/11/08 14:12:29;;;;;;;7.00;2.13;;;13.00;51.20;;;;;;5073078;28;20113;-80
2021/11/08 14:14:56;;;;;;;5.57;2.10;;;13.00;51.50;;;;;;5035269;28;20025;-80
2021/11/08 14:17:25;;;;;;;7.10;2.07;;;13.00;51.60;;;;;;5052140;28;20420;-80
2021/11/08 14:20:12;;;;;;;4.87;1.43;;;13.00;51.60;;;;;;5049837;28;20021;-80
2021/11/08 14:22:41;;;;;;;5.60;1.63;;;13.00;51.90;;;;;;5047019;28;20025;-80
2021/11/08 14:25:10;;;;;;;10.50;2.37;;;13.00;51.90;;;;;;5030325;28;20021;-80
2021/11/08 14:27:40;;;;;;;6.73;1.97;;;13.00;51.90;;;;;;5066509;28;20049;-80
2021/11/08 14:30:15;;;;;;;6.17;2.27;;;12.90;51.80;;;;;;5042977;28;20111;-80
2021/11/08 14:32:42;;;;;;;5.20;2.60;;;12.90;51.90;;;;;;5046433;28;20035;-80
2021/11/08 14:35:16;;;;;;;11.53;2.77;;;12.80;52.10;;;;;;5047633;28;20023;-80
2021/11/08 14:37:48;;;;;;;5.87;1.87;;;12.70;52.10;;;;;;5035376;28;20021;-80
2021/11/08 14:40:24;;;;;;;9.80;2.15;;;12.70;52.50;;;;;;5038533;28;20067;-80
2021/11/08 14:42:50;;;;;;;7.03;2.30;;;12.60;52.30;;;;;;5034495;28;20037;-80
2021/11/08 14:45:24;;;;;;;10.37;2.67;;;12.60;52.50;;;;;;5052786;28;20349;-80
2021/11/08 14:48:01;;;;;;;9.00;2.60;;;12.60;52.50;;;;;;5046588;28;20036;-80
2021/11/08 14:50:29;;;;;;;9.97;2.40;;;12.50;52.80;;;;;;5032595;28;20033;-80
2021/11/08 14:52:57;;;;;;;8.23;2.53;;;12.50;52.70;;;;;;5033027;28;20071;-80